sensor_id;sensor_type;location;lat;lon;timestamp;temperature;humidity
11647;DHT22;5880;52.342;9.662;2023-02-15T00:00:22;7.20;65.50
11647;DHT22;5880;52.342;9.662;2023-02-15T00:02:47;7.10;65.40
11647;DHT22;5880;52.342;9.662;2023-02-15T00:05:13;7.10;65.40
11647;DHT22;5880;52.342;9.662;2023-02-15T00:07:39;7.00;65.40
11647;DHT22;5880;52.342;9.662;2023-02-15T00:10:05;7.00;65.40
11647;DHT22;5880;52.342;9.662;2023-02-15T00:12:32;6.90;65.50
11647;DHT22;5880;52.342;9.662;2023-02-15T00:14:57;7.00;65.70
11647;DHT22;5880;52.342;9.662;2023-02-15T00:17:23;6.80;65.60
11647;DHT22;5880;52.342;9.662;2023-02-15T00:19:49;6.80;65.50
11647;DHT22;5880;52.342;9.662;2023-02-15T00:22:15;6.70;65.50
11647;DHT22;5880;52.342;9.662;2023-02-15T00:24:40;6.90;65.60
11647;DHT22;5880;52.342;9.662;2023-02-15T00:27:06;6.60;65.50
11647;DHT22;5880;52.342;9.662;2023-02-15T00:29:31;6.60;65.50
11647;DHT22;5880;52.342;9.662;2023-02-15T00:31:57;6.50;65.70
11647;DHT22;5880;52.342;9.662;2023-02-15T00:34:26;6.50;66.20
11647;DHT22;5880;52.342;9.662;2023-02-15T00:36:54;6.50;66.80
11647;DHT22;5880;52.342;9.662;2023-02-15T00:39:19;6.50;67.00
11647;DHT22;5880;52.342;9.662;2023-02-15T00:41:45;6.60;67.10
11647;DHT22;5880;52.342;9.662;2023-02-15T00:44:12;6.50;67.20
11647;DHT22;5880;52.342;9.662;2023-02-15T00:46:38;6.50;67.40
11647;DHT22;5880;52.342;9.662;2023-02-15T00:49:04;6.60;67.50
11647;DHT22;5880;52.342;9.662;2023-02-15T00:51:30;6.60;67.40
11647;DHT22;5880;52.342;9.662;2023-02-15T00:53:56;6.60;67.20
11647;DHT22;5880;52.342;9.662;2023-02-15T00:56:22;6.60;67.00
11647;DHT22;5880;52.342;9.662;2023-02-15T00:58:48;6.60;67.00
11647;DHT22;5880;52.342;9.662;2023-02-15T01:01:16;6.70;66.90
11647;DHT22;5880;52.342;9.662;2023-02-15T01:03:43;6.70;66.60
11647;DHT22;5880;52.342;9.662;2023-02-15T01:06:11;6.70;66.40
11647;DHT22;5880;52.342;9.662;2023-02-15T01:08:38;6.60;66.20
11647;DHT22;5880;52.342;9.662;2023-02-15T01:11:12;6.60;66.20
11647;DHT22;5880;52.342;9.662;2023-02-15T01:13:47;6.60;66.10
11647;DHT22;5880;52.342;9.662;2023-02-15T01:16:17;6.60;66.10
11647;DHT22;5880;52.342;9.662;2023-02-15T01:18:44;6.60;66.00
11647;DHT22;5880;52.342;9.662;2023-02-15T01:21:24;6.50;66.00
11647;DHT22;5880;52.342;9.662;2023-02-15T01:23:50;6.50;66.00
11647;DHT22;5880;52.342;9.662;2023-02-15T01:26:17;6.40;65.80
11647;DHT22;5880;52.342;9.662;2023-02-15T01:28:43;6.40;65.90
11647;DHT22;5880;52.342;9.662;2023-02-15T01:31:12;6.40;65.90
11647;DHT22;5880;52.342;9.662;2023-02-15T01:33:40;6.40;65.90
11647;DHT22;5880;52.342;9.662;2023-02-15T01:36:07;6.30;65.80
11647;DHT22;5880;52.342;9.662;2023-02-15T01:38:32;6.30;65.80
11647;DHT22;5880;52.342;9.662;2023-02-15T01:40:59;6.20;65.70
11647;DHT22;5880;52.342;9.662;2023-02-15T01:43:46;6.30;65.70
11647;DHT22;5880;52.342;9.662;2023-02-15T01:46:16;6.10;65.60
11647;DHT22;5880;52.342;9.662;2023-02-15T01:48:47;6.10;65.60
11647;DHT22;5880;52.342;9.662;2023-02-15T01:51:17;6.10;65.60
11647;DHT22;5880;52.342;9.662;2023-02-15T01:53:52;6.00;65.50
11647;DHT22;5880;52.342;9.662;2023-02-15T01:56:30;6.00;65.50
11647;DHT22;5880;52.342;9.662;2023-02-15T01:59:07;5.90;65.60
11647;DHT22;5880;52.342;9.662;2023-02-15T02:01:37;5.90;65.50
11647;DHT22;5880;52.342;9.662;2023-02-15T02:06:48;5.80;65.40
11647;DHT22;5880;52.342;9.662;2023-02-15T02:09:16;5.80;65.40
11647;DHT22;5880;52.342;9.662;2023-02-15T02:11:45;5.80;65.40
11647;DHT22;5880;52.342;9.662;2023-02-15T02:14:13;5.70;65.50
11647;DHT22;5880;52.342;9.662;2023-02-15T02:20:07;5.70;65.70
11647;DHT22;5880;52.342;9.662;2023-02-15T02:29:33;5.60;65.50
11647;DHT22;5880;52.342;9.662;2023-02-15T02:32:43;5.50;65.50
11647;DHT22;5880;52.342;9.662;2023-02-15T02:35:38;5.50;65.40
11647;DHT22;5880;52.342;9.662;2023-02-15T02:38:27;5.40;65.40
11647;DHT22;5880;52.342;9.662;2023-02-15T02:43:38;5.40;65.50
11647;DHT22;5880;52.342;9.662;2023-02-15T02:46:53;5.30;65.50
11647;DHT22;5880;52.342;9.662;2023-02-15T02:49:02;5.30;65.60
11647;DHT22;5880;52.342;9.662;2023-02-15T02:51:28;5.30;66.40
11647;DHT22;5880;52.342;9.662;2023-02-15T02:53:56;5.30;65.60
11647;DHT22;5880;52.342;9.662;2023-02-15T02:56:33;5.30;65.70
11647;DHT22;5880;52.342;9.662;2023-02-15T02:59:19;5.20;65.70
11647;DHT22;5880;52.342;9.662;2023-02-15T03:02:37;5.30;65.80
11647;DHT22;5880;52.342;9.662;2023-02-15T03:05:04;5.20;65.80
11647;DHT22;5880;52.342;9.662;2023-02-15T03:07:36;5.20;65.60
11647;DHT22;5880;52.342;9.662;2023-02-15T03:10:04;5.20;65.60
11647;DHT22;5880;52.342;9.662;2023-02-15T03:12:34;5.20;65.60
11647;DHT22;5880;52.342;9.662;2023-02-15T03:15:18;5.10;65.60
11647;DHT22;5880;52.342;9.662;2023-02-15T03:17:51;5.10;65.70
11647;DHT22;5880;52.342;9.662;2023-02-15T03:20:27;5.10;65.60
11647;DHT22;5880;52.342;9.662;2023-02-15T03:23:03;4.90;66.20
11647;DHT22;5880;52.342;9.662;2023-02-15T03:25:34;5.20;65.60
11647;DHT22;5880;52.342;9.662;2023-02-15T03:28:19;5.00;65.40
11647;DHT22;5880;52.342;9.662;2023-02-15T03:30:52;5.00;65.60
11647;DHT22;5880;52.342;9.662;2023-02-15T03:33:21;5.00;65.60
11647;DHT22;5880;52.342;9.662;2023-02-15T03:38:29;5.00;65.60
11647;DHT22;5880;52.342;9.662;2023-02-15T03:41:02;5.00;65.70
11647;DHT22;5880;52.342;9.662;2023-02-15T03:43:47;5.00;65.60
11647;DHT22;5880;52.342;9.662;2023-02-15T03:46:31;4.90;65.60
11647;DHT22;5880;52.342;9.662;2023-02-15T03:49:11;4.90;65.60
11647;DHT22;5880;52.342;9.662;2023-02-15T03:51:46;4.90;65.60
11647;DHT22;5880;52.342;9.662;2023-02-15T03:54:22;4.90;65.60
11647;DHT22;5880;52.342;9.662;2023-02-15T03:57:12;5.00;65.80
11647;DHT22;5880;52.342;9.662;2023-02-15T04:00:25;4.90;65.80
11647;DHT22;5880;52.342;9.662;2023-02-15T04:03:30;4.90;66.10
11647;DHT22;5880;52.342;9.662;2023-02-15T04:06:02;4.90;65.80
11647;DHT22;5880;52.342;9.662;2023-02-15T04:08:28;4.90;65.50
11647;DHT22;5880;52.342;9.662;2023-02-15T04:11:13;4.80;65.30
11647;DHT22;5880;52.342;9.662;2023-02-15T04:13:39;4.80;65.30
11647;DHT22;5880;52.342;9.662;2023-02-15T04:16:05;4.80;65.50
11647;DHT22;5880;52.342;9.662;2023-02-15T04:18:39;4.70;65.50
11647;DHT22;5880;52.342;9.662;2023-02-15T04:21:27;4.70;65.60
11647;DHT22;5880;52.342;9.662;2023-02-15T04:24:13;4.70;65.60
11647;DHT22;5880;52.342;9.662;2023-02-15T04:26:58;4.70;65.60
11647;DHT22;5880;52.342;9.662;2023-02-15T04:29:26;4.70;65.80
11647;DHT22;5880;52.342;9.662;2023-02-15T04:31:56;4.70;65.80
11647;DHT22;5880;52.342;9.662;2023-02-15T04:34:23;4.70;65.80
11647;DHT22;5880;52.342;9.662;2023-02-15T04:36:49;4.70;65.80
11647;DHT22;5880;52.342;9.662;2023-02-15T04:39:16;4.70;65.80
11647;DHT22;5880;52.342;9.662;2023-02-15T04:41:43;4.60;65.70
11647;DHT22;5880;52.342;9.662;2023-02-15T04:44:10;4.70;65.70
11647;DHT22;5880;52.342;9.662;2023-02-15T04:46:35;4.60;65.60
11647;DHT22;5880;52.342;9.662;2023-02-15T04:49:01;4.60;65.60
11647;DHT22;5880;52.342;9.662;2023-02-15T04:51:28;4.60;65.50
11647;DHT22;5880;52.342;9.662;2023-02-15T04:53:53;4.60;65.60
11647;DHT22;5880;52.342;9.662;2023-02-15T04:56:19;4.60;65.70
11647;DHT22;5880;52.342;9.662;2023-02-15T04:58:46;4.60;65.70
11647;DHT22;5880;52.342;9.662;2023-02-15T05:01:11;4.60;65.80
11647;DHT22;5880;52.342;9.662;2023-02-15T05:03:37;4.60;65.80
11647;DHT22;5880;52.342;9.662;2023-02-15T05:06:03;4.60;65.80
11647;DHT22;5880;52.342;9.662;2023-02-15T05:08:29;4.60;65.80
11647;DHT22;5880;52.342;9.662;2023-02-15T05:10:56;4.50;65.70
11647;DHT22;5880;52.342;9.662;2023-02-15T05:13:22;4.50;65.70
11647;DHT22;5880;52.342;9.662;2023-02-15T05:15:49;4.50;65.70
11647;DHT22;5880;52.342;9.662;2023-02-15T05:18:16;4.50;65.70
11647;DHT22;5880;52.342;9.662;2023-02-15T05:20:44;4.50;65.80
11647;DHT22;5880;52.342;9.662;2023-02-15T05:23:09;4.50;65.70
11647;DHT22;5880;52.342;9.662;2023-02-15T05:25:35;4.50;65.60
11647;DHT22;5880;52.342;9.662;2023-02-15T05:28:21;4.50;65.60
11647;DHT22;5880;52.342;9.662;2023-02-15T05:33:35;4.40;65.50
11647;DHT22;5880;52.342;9.662;2023-02-15T05:36:02;4.40;65.30
11647;DHT22;5880;52.342;9.662;2023-02-15T05:38:28;4.40;65.30
11647;DHT22;5880;52.342;9.662;2023-02-15T05:40:54;4.40;65.40
11647;DHT22;5880;52.342;9.662;2023-02-15T05:43:20;4.30;65.50
11647;DHT22;5880;52.342;9.662;2023-02-15T05:45:48;4.30;65.60
11647;DHT22;5880;52.342;9.662;2023-02-15T05:48:17;4.30;65.70
11647;DHT22;5880;52.342;9.662;2023-02-15T05:50:44;4.30;65.70
11647;DHT22;5880;52.342;9.662;2023-02-15T05:53:10;4.30;65.70
11647;DHT22;5880;52.342;9.662;2023-02-15T05:55:41;4.30;65.70
11647;DHT22;5880;52.342;9.662;2023-02-15T05:58:07;4.30;65.90
11647;DHT22;5880;52.342;9.662;2023-02-15T06:00:34;4.30;65.80
11647;DHT22;5880;52.342;9.662;2023-02-15T06:03:00;4.30;65.80
11647;DHT22;5880;52.342;9.662;2023-02-15T06:05:25;4.30;65.80
11647;DHT22;5880;52.342;9.662;2023-02-15T06:07:51;5.00;66.10
11647;DHT22;5880;52.342;9.662;2023-02-15T06:10:17;4.30;65.80
11647;DHT22;5880;52.342;9.662;2023-02-15T06:12:44;4.30;65.70
11647;DHT22;5880;52.342;9.662;2023-02-15T06:15:10;4.20;65.50
11647;DHT22;5880;52.342;9.662;2023-02-15T06:17:35;4.20;65.50
11647;DHT22;5880;52.342;9.662;2023-02-15T06:20:01;4.20;65.60
11647;DHT22;5880;52.342;9.662;2023-02-15T06:22:27;4.10;65.50
11647;DHT22;5880;52.342;9.662;2023-02-15T06:24:52;4.10;65.50
11647;DHT22;5880;52.342;9.662;2023-02-15T06:27:18;4.10;65.50
11647;DHT22;5880;52.342;9.662;2023-02-15T06:29:44;4.00;65.50
11647;DHT22;5880;52.342;9.662;2023-02-15T06:32:09;4.00;65.50
11647;DHT22;5880;52.342;9.662;2023-02-15T06:34:35;4.00;65.70
11647;DHT22;5880;52.342;9.662;2023-02-15T06:37:00;4.00;66.10
11647;DHT22;5880;52.342;9.662;2023-02-15T06:39:26;4.00;66.20
11647;DHT22;5880;52.342;9.662;2023-02-15T06:41:52;4.00;66.30
11647;DHT22;5880;52.342;9.662;2023-02-15T06:44:17;4.10;66.50
11647;DHT22;5880;52.342;9.662;2023-02-15T06:46:43;4.10;66.60
11647;DHT22;5880;52.342;9.662;2023-02-15T06:49:09;4.10;66.60
11647;DHT22;5880;52.342;9.662;2023-02-15T06:51:34;4.10;66.70
11647;DHT22;5880;52.342;9.662;2023-02-15T06:54:00;4.20;66.70
11647;DHT22;5880;52.342;9.662;2023-02-15T06:56:26;4.20;66.70
11647;DHT22;5880;52.342;9.662;2023-02-15T06:58:51;4.20;66.60
11647;DHT22;5880;52.342;9.662;2023-02-15T07:01:18;4.30;66.60
11647;DHT22;5880;52.342;9.662;2023-02-15T07:03:44;4.30;66.60
11647;DHT22;5880;52.342;9.662;2023-02-15T07:06:10;4.30;66.60
11647;DHT22;5880;52.342;9.662;2023-02-15T07:08:37;4.30;66.60
11647;DHT22;5880;52.342;9.662;2023-02-15T07:11:04;4.30;66.60
11647;DHT22;5880;52.342;9.662;2023-02-15T07:13:50;4.30;66.70
11647;DHT22;5880;52.342;9.662;2023-02-15T07:16:17;4.30;66.70
11647;DHT22;5880;52.342;9.662;2023-02-15T07:18:43;4.40;66.70
11647;DHT22;5880;52.342;9.662;2023-02-15T07:21:09;4.40;66.80
11647;DHT22;5880;52.342;9.662;2023-02-15T07:23:36;4.60;66.90
11647;DHT22;5880;52.342;9.662;2023-02-15T07:26:04;4.40;66.90
11647;DHT22;5880;52.342;9.662;2023-02-15T07:28:32;4.90;67.10
11647;DHT22;5880;52.342;9.662;2023-02-15T07:31:00;4.50;66.90
11647;DHT22;5880;52.342;9.662;2023-02-15T07:33:26;4.50;66.90
11647;DHT22;5880;52.342;9.662;2023-02-15T07:35:53;4.50;67.00
11647;DHT22;5880;52.342;9.662;2023-02-15T07:38:21;4.60;67.20
11647;DHT22;5880;52.342;9.662;2023-02-15T07:40:47;4.60;67.20
11647;DHT22;5880;52.342;9.662;2023-02-15T07:43:13;4.60;67.30
11647;DHT22;5880;52.342;9.662;2023-02-15T07:45:39;4.70;67.40
11647;DHT22;5880;52.342;9.662;2023-02-15T07:48:06;4.70;67.40
11647;DHT22;5880;52.342;9.662;2023-02-15T07:50:32;4.70;67.50
11647;DHT22;5880;52.342;9.662;2023-02-15T07:52:58;4.80;67.50
11647;DHT22;5880;52.342;9.662;2023-02-15T07:55:27;4.60;67.50
11647;DHT22;5880;52.342;9.662;2023-02-15T07:57:52;4.90;67.80
11647;DHT22;5880;52.342;9.662;2023-02-15T08:00:20;5.00;67.90
11647;DHT22;5880;52.342;9.662;2023-02-15T08:02:51;5.00;67.90
11647;DHT22;5880;52.342;9.662;2023-02-15T08:05:39;5.10;68.10
11647;DHT22;5880;52.342;9.662;2023-02-15T08:08:06;5.20;67.90
11647;DHT22;5880;52.342;9.662;2023-02-15T08:10:33;5.20;67.80
11647;DHT22;5880;52.342;9.662;2023-02-15T08:13:19;5.20;67.70
11647;DHT22;5880;52.342;9.662;2023-02-15T08:15:51;5.30;67.80
11647;DHT22;5880;52.342;9.662;2023-02-15T08:18:17;5.40;67.80
11647;DHT22;5880;52.342;9.662;2023-02-15T08:20:48;5.40;67.60
11647;DHT22;5880;52.342;9.662;2023-02-15T08:23:14;5.50;67.70
11647;DHT22;5880;52.342;9.662;2023-02-15T08:25:40;5.50;67.80
11647;DHT22;5880;52.342;9.662;2023-02-15T08:28:05;5.60;67.80
11647;DHT22;5880;52.342;9.662;2023-02-15T08:30:31;5.60;67.80
11647;DHT22;5880;52.342;9.662;2023-02-15T08:32:57;5.60;67.90
11647;DHT22;5880;52.342;9.662;2023-02-15T08:35:22;5.70;68.00
11647;DHT22;5880;52.342;9.662;2023-02-15T08:37:48;5.80;68.80
11647;DHT22;5880;52.342;9.662;2023-02-15T08:40:13;5.80;68.00
11647;DHT22;5880;52.342;9.662;2023-02-15T08:42:39;5.90;68.10
11647;DHT22;5880;52.342;9.662;2023-02-15T08:45:05;5.90;68.10
11647;DHT22;5880;52.342;9.662;2023-02-15T08:47:31;6.00;68.10
11647;DHT22;5880;52.342;9.662;2023-02-15T08:49:57;6.10;68.20
11647;DHT22;5880;52.342;9.662;2023-02-15T08:52:23;6.10;68.20
11647;DHT22;5880;52.342;9.662;2023-02-15T08:54:48;6.20;68.20
11647;DHT22;5880;52.342;9.662;2023-02-15T08:57:14;6.30;68.30
11647;DHT22;5880;52.342;9.662;2023-02-15T08:59:39;6.30;68.20
11647;DHT22;5880;52.342;9.662;2023-02-15T09:02:05;6.40;68.30
11647;DHT22;5880;52.342;9.662;2023-02-15T09:04:31;6.40;68.80
11647;DHT22;5880;52.342;9.662;2023-02-15T09:06:57;6.50;68.00
11647;DHT22;5880;52.342;9.662;2023-02-15T09:09:22;6.60;68.00
11647;DHT22;5880;52.342;9.662;2023-02-15T09:11:50;6.60;67.90
11647;DHT22;5880;52.342;9.662;2023-02-15T09:14:18;6.70;67.90
11647;DHT22;5880;52.342;9.662;2023-02-15T09:16:46;6.70;67.70
11647;DHT22;5880;52.342;9.662;2023-02-15T09:19:15;6.80;67.50
11647;DHT22;5880;52.342;9.662;2023-02-15T09:21:42;6.80;67.50
11647;DHT22;5880;52.342;9.662;2023-02-15T09:24:10;6.90;67.30
11647;DHT22;5880;52.342;9.662;2023-02-15T09:26:39;6.80;67.10
11647;DHT22;5880;52.342;9.662;2023-02-15T09:29:08;6.90;67.20
11647;DHT22;5880;52.342;9.662;2023-02-15T09:31:40;7.00;67.20
11647;DHT22;5880;52.342;9.662;2023-02-15T09:34:09;7.00;67.10
11647;DHT22;5880;52.342;9.662;2023-02-15T09:36:38;7.10;67.20
11647;DHT22;5880;52.342;9.662;2023-02-15T09:39:16;7.10;68.00
11647;DHT22;5880;52.342;9.662;2023-02-15T09:48:38;7.20;66.50
11647;DHT22;5880;52.342;9.662;2023-02-15T09:54:11;7.40;68.50
11647;DHT22;5880;52.342;9.662;2023-02-15T09:56:52;7.70;69.30
11647;DHT22;5880;52.342;9.662;2023-02-15T09:59:35;8.00;70.50
11647;DHT22;5880;52.342;9.662;2023-02-15T10:11:10;9.40;69.60
11647;DHT22;5880;52.342;9.662;2023-02-15T10:20:38;9.80;65.80
11647;DHT22;5880;52.342;9.662;2023-02-15T10:26:19;9.80;65.50
11647;DHT22;5880;52.342;9.662;2023-02-15T10:28:58;9.80;65.20
11647;DHT22;5880;52.342;9.662;2023-02-15T10:31:48;9.80;64.80
11647;DHT22;5880;52.342;9.662;2023-02-15T10:34:25;9.80;64.50
11647;DHT22;5880;52.342;9.662;2023-02-15T10:37:10;9.80;64.80
11647;DHT22;5880;52.342;9.662;2023-02-15T10:43:18;9.70;64.60
11647;DHT22;5880;52.342;9.662;2023-02-15T10:50:19;9.70;64.20
11647;DHT22;5880;52.342;9.662;2023-02-15T10:53:05;9.70;64.00
11647;DHT22;5880;52.342;9.662;2023-02-15T11:01:30;9.80;64.50
11647;DHT22;5880;52.342;9.662;2023-02-15T11:07:26;9.80;63.50
11647;DHT22;5880;52.342;9.662;2023-02-15T11:10:26;9.90;65.00
11647;DHT22;5880;52.342;9.662;2023-02-15T11:12:55;9.90;63.60
11647;DHT22;5880;52.342;9.662;2023-02-15T11:15:30;9.90;64.60
11647;DHT22;5880;52.342;9.662;2023-02-15T11:21:02;10.00;64.50
11647;DHT22;5880;52.342;9.662;2023-02-15T11:23:35;10.00;64.60
11647;DHT22;5880;52.342;9.662;2023-02-15T11:26:13;10.10;64.90
11647;DHT22;5880;52.342;9.662;2023-02-15T11:28:51;10.10;64.60
11647;DHT22;5880;52.342;9.662;2023-02-15T11:31:24;10.20;64.10
11647;DHT22;5880;52.342;9.662;2023-02-15T11:33:57;10.20;64.30
11647;DHT22;5880;52.342;9.662;2023-02-15T11:36:37;10.30;64.20
11647;DHT22;5880;52.342;9.662;2023-02-15T11:39:11;10.30;64.10
11647;DHT22;5880;52.342;9.662;2023-02-15T11:41:44;10.40;64.20
11647;DHT22;5880;52.342;9.662;2023-02-15T11:44:23;10.40;64.50
11647;DHT22;5880;52.342;9.662;2023-02-15T11:46:53;10.50;64.20
11647;DHT22;5880;52.342;9.662;2023-02-15T11:49:31;10.50;64.30
11647;DHT22;5880;52.342;9.662;2023-02-15T11:52:02;10.60;63.40
11647;DHT22;5880;52.342;9.662;2023-02-15T11:54:35;10.60;64.00
11647;DHT22;5880;52.342;9.662;2023-02-15T11:57:50;10.60;64.00
11647;DHT22;5880;52.342;9.662;2023-02-15T12:00:22;10.70;62.60
11647;DHT22;5880;52.342;9.662;2023-02-15T12:02:57;10.70;62.20
11647;DHT22;5880;52.342;9.662;2023-02-15T12:05:24;10.80;62.90
11647;DHT22;5880;52.342;9.662;2023-02-15T12:08:02;10.70;63.10
11647;DHT22;5880;52.342;9.662;2023-02-15T12:10:40;10.80;62.40
11647;DHT22;5880;52.342;9.662;2023-02-15T12:13:19;10.80;63.10
11647;DHT22;5880;52.342;9.662;2023-02-15T12:15:51;10.90;63.40
11647;DHT22;5880;52.342;9.662;2023-02-15T12:21:11;11.00;62.00
11647;DHT22;5880;52.342;9.662;2023-02-15T12:23:47;11.00;63.30
11647;DHT22;5880;52.342;9.662;2023-02-15T12:29:00;11.60;63.00
11647;DHT22;5880;52.342;9.662;2023-02-15T12:31:44;11.20;63.20
11647;DHT22;5880;52.342;9.662;2023-02-15T12:34:26;11.20;62.00
11647;DHT22;5880;52.342;9.662;2023-02-15T12:36:57;11.30;62.30
11647;DHT22;5880;52.342;9.662;2023-02-15T12:39:32;11.30;62.80
11647;DHT22;5880;52.342;9.662;2023-02-15T12:42:05;11.30;62.70
11647;DHT22;5880;52.342;9.662;2023-02-15T12:45:02;11.30;62.90
11647;DHT22;5880;52.342;9.662;2023-02-15T12:47:44;11.40;62.00
11647;DHT22;5880;52.342;9.662;2023-02-15T12:50:21;11.40;62.60
11647;DHT22;5880;52.342;9.662;2023-02-15T12:52:50;11.40;62.10
11647;DHT22;5880;52.342;9.662;2023-02-15T12:55:30;11.50;62.10
11647;DHT22;5880;52.342;9.662;2023-02-15T12:58:06;11.50;62.30
11647;DHT22;5880;52.342;9.662;2023-02-15T13:00:46;11.50;61.10
11647;DHT22;5880;52.342;9.662;2023-02-15T13:03:22;11.50;62.30
11647;DHT22;5880;52.342;9.662;2023-02-15T13:05:53;11.50;61.40
11647;DHT22;5880;52.342;9.662;2023-02-15T13:08:31;11.60;61.40
11647;DHT22;5880;52.342;9.662;2023-02-15T13:11:10;11.60;61.30
11647;DHT22;5880;52.342;9.662;2023-02-15T13:13:52;11.60;60.70
11647;DHT22;5880;52.342;9.662;2023-02-15T13:16:32;11.60;60.00
11647;DHT22;5880;52.342;9.662;2023-02-15T13:19:06;11.60;60.90
11647;DHT22;5880;52.342;9.662;2023-02-15T13:21:40;11.60;60.80
11647;DHT22;5880;52.342;9.662;2023-02-15T13:24:24;11.70;61.20
11647;DHT22;5880;52.342;9.662;2023-02-15T13:26:55;11.70;59.30
11647;DHT22;5880;52.342;9.662;2023-02-15T13:29:25;11.70;61.30
11647;DHT22;5880;52.342;9.662;2023-02-15T13:31:55;11.80;61.30
11647;DHT22;5880;52.342;9.662;2023-02-15T13:34:26;11.70;61.40
11647;DHT22;5880;52.342;9.662;2023-02-15T13:40:18;11.70;60.50
11647;DHT22;5880;52.342;9.662;2023-02-15T13:43:19;11.80;60.80
11647;DHT22;5880;52.342;9.662;2023-02-15T13:48:56;11.80;61.30
11647;DHT22;5880;52.342;9.662;2023-02-15T13:51:51;11.90;61.40
11647;DHT22;5880;52.342;9.662;2023-02-15T14:01:28;12.00;60.50
11647;DHT22;5880;52.342;9.662;2023-02-15T14:04:15;12.00;60.30
11647;DHT22;5880;52.342;9.662;2023-02-15T14:07:21;12.00;61.00
11647;DHT22;5880;52.342;9.662;2023-02-15T14:10:37;12.00;59.50
11647;DHT22;5880;52.342;9.662;2023-02-15T14:13:24;12.00;60.00
11647;DHT22;5880;52.342;9.662;2023-02-15T14:16:09;12.10;60.10
11647;DHT22;5880;52.342;9.662;2023-02-15T14:18:49;12.00;59.90
11647;DHT22;5880;52.342;9.662;2023-02-15T14:21:47;12.00;60.50
11647;DHT22;5880;52.342;9.662;2023-02-15T14:24:46;12.00;59.70
11647;DHT22;5880;52.342;9.662;2023-02-15T14:30:25;11.90;59.70
11647;DHT22;5880;52.342;9.662;2023-02-15T14:32:59;11.90;60.50
11647;DHT22;5880;52.342;9.662;2023-02-15T14:35:30;11.90;60.60
11647;DHT22;5880;52.342;9.662;2023-02-15T14:38:20;11.90;60.80
11647;DHT22;5880;52.342;9.662;2023-02-15T14:49:22;11.80;60.10
11647;DHT22;5880;52.342;9.662;2023-02-15T14:56:41;11.80;61.50
11647;DHT22;5880;52.342;9.662;2023-02-15T14:59:15;11.80;60.90
11647;DHT22;5880;52.342;9.662;2023-02-15T15:01:58;11.70;60.40
11647;DHT22;5880;52.342;9.662;2023-02-15T15:07:46;11.80;59.90
11647;DHT22;5880;52.342;9.662;2023-02-15T15:12:50;11.80;60.80
11647;DHT22;5880;52.342;9.662;2023-02-15T15:15:38;11.80;60.00
11647;DHT22;5880;52.342;9.662;2023-02-15T15:21:10;11.80;59.80
11647;DHT22;5880;52.342;9.662;2023-02-15T15:23:45;11.80;60.50
11647;DHT22;5880;52.342;9.662;2023-02-15T15:26:31;11.80;59.80
11647;DHT22;5880;52.342;9.662;2023-02-15T15:29:06;11.80;59.50
11647;DHT22;5880;52.342;9.662;2023-02-15T15:31:43;11.80;60.30
11647;DHT22;5880;52.342;9.662;2023-02-15T15:34:31;11.80;59.60
11647;DHT22;5880;52.342;9.662;2023-02-15T15:40:29;11.80;59.00
11647;DHT22;5880;52.342;9.662;2023-02-15T15:43:23;11.80;59.40
11647;DHT22;5880;52.342;9.662;2023-02-15T15:46:49;11.70;59.30
11647;DHT22;5880;52.342;9.662;2023-02-15T15:49:20;11.60;58.70
11647;DHT22;5880;52.342;9.662;2023-02-15T15:51:49;11.60;59.40
11647;DHT22;5880;52.342;9.662;2023-02-15T15:54:18;11.50;59.50
11647;DHT22;5880;52.342;9.662;2023-02-15T15:56:58;11.40;59.30
11647;DHT22;5880;52.342;9.662;2023-02-15T15:59:34;11.40;58.80
11647;DHT22;5880;52.342;9.662;2023-02-15T16:02:07;11.30;58.90
11647;DHT22;5880;52.342;9.662;2023-02-15T16:04:38;11.30;58.90
11647;DHT22;5880;52.342;9.662;2023-02-15T16:10:04;11.20;58.80
11647;DHT22;5880;52.342;9.662;2023-02-15T16:12:32;11.10;59.30
11647;DHT22;5880;52.342;9.662;2023-02-15T16:15:04;11.00;59.20
11647;DHT22;5880;52.342;9.662;2023-02-15T16:17:41;11.00;59.20
11647;DHT22;5880;52.342;9.662;2023-02-15T16:20:17;10.90;59.30
11647;DHT22;5880;52.342;9.662;2023-02-15T16:22:56;10.90;59.10
11647;DHT22;5880;52.342;9.662;2023-02-15T16:26:00;10.80;58.90
11647;DHT22;5880;52.342;9.662;2023-02-15T16:28:29;10.80;58.80
11647;DHT22;5880;52.342;9.662;2023-02-15T16:31:07;10.70;59.30
11647;DHT22;5880;52.342;9.662;2023-02-15T16:33:39;10.60;59.00
11647;DHT22;5880;52.342;9.662;2023-02-15T16:36:11;10.50;59.30
11647;DHT22;5880;52.342;9.662;2023-02-15T16:41:30;10.40;59.50
11647;DHT22;5880;52.342;9.662;2023-02-15T16:44:00;10.30;59.40
11647;DHT22;5880;52.342;9.662;2023-02-15T16:46:35;10.20;59.40
11647;DHT22;5880;52.342;9.662;2023-02-15T16:49:14;10.20;59.50
11647;DHT22;5880;52.342;9.662;2023-02-15T16:51:43;10.10;59.60
11647;DHT22;5880;52.342;9.662;2023-02-15T16:54:20;10.10;59.70
11647;DHT22;5880;52.342;9.662;2023-02-15T16:56:48;10.00;59.60
11647;DHT22;5880;52.342;9.662;2023-02-15T16:59:36;9.90;59.80
11647;DHT22;5880;52.342;9.662;2023-02-15T17:02:25;9.90;60.40
11647;DHT22;5880;52.342;9.662;2023-02-15T17:05:13;9.80;59.70
11647;DHT22;5880;52.342;9.662;2023-02-15T17:10:31;9.70;59.90
11647;DHT22;5880;52.342;9.662;2023-02-15T17:13:04;9.70;60.10
11647;DHT22;5880;52.342;9.662;2023-02-15T17:15:38;9.60;60.00
11647;DHT22;5880;52.342;9.662;2023-02-15T17:18:21;9.50;60.20
11647;DHT22;5880;52.342;9.662;2023-02-15T17:20:50;9.50;60.20
11647;DHT22;5880;52.342;9.662;2023-02-15T17:23:28;9.50;60.30
11647;DHT22;5880;52.342;9.662;2023-02-15T17:25:54;9.50;60.40
11647;DHT22;5880;52.342;9.662;2023-02-15T17:28:24;9.40;60.40
11647;DHT22;5880;52.342;9.662;2023-02-15T17:30:53;9.40;60.50
11647;DHT22;5880;52.342;9.662;2023-02-15T17:33:24;9.30;60.60
11647;DHT22;5880;52.342;9.662;2023-02-15T17:36:12;9.30;60.70
11647;DHT22;5880;52.342;9.662;2023-02-15T17:43:49;9.20;60.80
11647;DHT22;5880;52.342;9.662;2023-02-15T17:46:14;9.20;60.90
11647;DHT22;5880;52.342;9.662;2023-02-15T17:48:45;9.10;60.90
11647;DHT22;5880;52.342;9.662;2023-02-15T17:51:13;9.10;61.10
11647;DHT22;5880;52.342;9.662;2023-02-15T17:53:40;9.10;61.10
11647;DHT22;5880;52.342;9.662;2023-02-15T17:56:06;9.00;61.10
11647;DHT22;5880;52.342;9.662;2023-02-15T17:58:35;9.00;61.20
11647;DHT22;5880;52.342;9.662;2023-02-15T18:01:06;9.10;61.20
11647;DHT22;5880;52.342;9.662;2023-02-15T18:03:55;9.00;61.20
11647;DHT22;5880;52.342;9.662;2023-02-15T18:06:41;9.00;61.20
11647;DHT22;5880;52.342;9.662;2023-02-15T18:09:26;9.00;61.10
11647;DHT22;5880;52.342;9.662;2023-02-15T18:12:23;9.00;61.90
11647;DHT22;5880;52.342;9.662;2023-02-15T18:14:52;8.90;61.10
11647;DHT22;5880;52.342;9.662;2023-02-15T18:17:23;8.90;61.10
11647;DHT22;5880;52.342;9.662;2023-02-15T18:19:52;8.90;61.20
11647;DHT22;5880;52.342;9.662;2023-02-15T18:22:19;8.90;61.20
11647;DHT22;5880;52.342;9.662;2023-02-15T18:24:46;8.90;61.20
11647;DHT22;5880;52.342;9.662;2023-02-15T18:27:13;8.80;61.10
11647;DHT22;5880;52.342;9.662;2023-02-15T18:29:40;8.80;61.10
11647;DHT22;5880;52.342;9.662;2023-02-15T18:32:15;8.80;61.10
11647;DHT22;5880;52.342;9.662;2023-02-15T18:34:44;8.70;61.20
11647;DHT22;5880;52.342;9.662;2023-02-15T18:37:18;8.70;61.20
11647;DHT22;5880;52.342;9.662;2023-02-15T18:39:48;8.70;61.40
11647;DHT22;5880;52.342;9.662;2023-02-15T18:42:26;8.70;61.40
11647;DHT22;5880;52.342;9.662;2023-02-15T18:47:39;8.60;61.50